Terminal Aerodrome Forecast
Issued by NWS

Home | Current Version | Previous Version | Graphics & Text | Print | Product List | Glossary On
Versions: 1 2 3 4 5 6 7 8 9 10 11 12
000
FTUS42 KMHX 130300 AAA
TAFPGV
TAF AMD
KPGV 130300Z 1303/1324 31012G20KT P6SM SCT070 WS020/33050KT
     FM130600 30009G16KT P6SM SCT080
     FM131800 27011KT P6SM SKC
      AMD LTD TO CLD VIS AND WIND=

USA.gov is the U.S. government's official web portal to all federal, state and local government web resources and services.